createdAt,value
2023-04-22T00:00:24.942Z,90.80
2023-04-22T00:02:52.909Z,90.90
2023-04-22T00:05:21.016Z,90.50
2023-04-22T00:07:49.377Z,90.30
2023-04-22T00:10:16.678Z,89.60
2023-04-22T00:12:44.372Z,87.50
2023-04-22T00:15:11.997Z,85.90
2023-04-22T00:17:40.594Z,85.70
2023-04-22T00:20:11.408Z,85.90
2023-04-22T00:22:38.860Z,86.00
2023-04-22T00:25:07.288Z,86.40
2023-04-22T00:27:35.620Z,86.60
2023-04-22T00:30:03.195Z,87.10
2023-04-22T00:32:30.742Z,87.70
2023-04-22T00:34:58.448Z,88.60
2023-04-22T00:37:26.327Z,89.40
2023-04-22T00:39:53.904Z,90.40
2023-04-22T00:42:22.296Z,91.00
2023-04-22T00:44:51.524Z,91.80
2023-04-22T00:47:19.949Z,91.90
2023-04-22T00:49:49.648Z,92.30
2023-04-22T00:52:17.104Z,92.90
2023-04-22T00:54:44.810Z,93.40
2023-04-22T00:57:12.535Z,93.50
2023-04-22T00:59:40.304Z,93.80
2023-04-22T01:02:08.339Z,94.00
2023-04-22T01:04:36.995Z,94.30
2023-04-22T01:07:04.395Z,94.80
2023-04-22T01:09:31.664Z,94.70
2023-04-22T01:11:59.181Z,94.70
2023-04-22T01:14:26.723Z,94.70
2023-04-22T01:16:54.454Z,94.70
2023-04-22T01:19:22.155Z,94.30
2023-04-22T01:21:51.843Z,93.80
2023-04-22T01:24:19.714Z,93.20
2023-04-22T01:26:48.255Z,92.60
2023-04-22T01:29:16.437Z,92.50
2023-04-22T01:31:44.635Z,92.50
2023-04-22T01:34:12.387Z,93.00
2023-04-22T01:36:39.882Z,93.10
2023-04-22T01:39:08.189Z,93.50
2023-04-22T01:41:36.025Z,93.60
2023-04-22T01:44:05.042Z,93.60
2023-04-22T01:46:34.030Z,93.60
2023-04-22T01:49:01.486Z,93.90
2023-04-22T01:51:28.917Z,93.90
2023-04-22T01:53:57.042Z,93.90
2023-04-22T01:56:24.629Z,93.90
2023-04-22T01:58:52.156Z,93.80
2023-04-22T02:01:20.355Z,93.70
2023-04-22T02:03:48.061Z,93.30
2023-04-22T02:06:15.394Z,93.30
2023-04-22T02:08:42.857Z,92.90
2023-04-22T02:11:10.264Z,92.50
2023-04-22T02:13:39.164Z,92.00
2023-04-22T02:16:07.671Z,91.10
2023-04-22T02:18:35.508Z,91.00
2023-04-22T02:21:03.278Z,90.60
2023-04-22T02:23:31.367Z,90.00
2023-04-22T02:25:58.879Z,89.00
2023-04-22T02:28:26.231Z,86.60
2023-04-22T02:30:53.696Z,83.30
2023-04-22T02:33:23.468Z,80.30
2023-04-22T02:35:52.137Z,79.20
2023-04-22T02:38:20.234Z,78.20
2023-04-22T02:40:47.780Z,77.40
2023-04-22T02:43:15.135Z,77.80
2023-04-22T02:45:42.433Z,77.20
2023-04-22T02:48:10.123Z,76.90
2023-04-22T02:50:37.689Z,77.00
2023-04-22T02:53:05.320Z,76.90
2023-04-22T02:55:32.822Z,75.80
2023-04-22T02:58:00.314Z,75.60
2023-04-22T03:00:27.762Z,75.60
2023-04-22T03:02:56.074Z,73.50
2023-04-22T03:05:30.206Z,73.00
2023-04-22T03:07:57.761Z,73.40
2023-04-22T03:10:25.010Z,73.40
2023-04-22T03:12:52.473Z,72.30
2023-04-22T03:15:21.997Z,72.40
2023-04-22T03:17:49.854Z,72.60
2023-04-22T03:20:19.777Z,73.10
2023-04-22T03:22:48.017Z,73.30
2023-04-22T03:25:16.746Z,73.50
2023-04-22T03:27:50.285Z,73.40
2023-04-22T03:30:18.949Z,73.50
2023-04-22T03:32:47.653Z,73.40
2023-04-22T03:35:21.182Z,73.60
2023-04-22T03:37:50.895Z,73.90
2023-04-22T03:40:23.263Z,74.90
2023-04-22T03:42:50.698Z,74.30
2023-04-22T03:45:20.789Z,74.40
2023-04-22T03:47:56.873Z,74.50
2023-04-22T03:50:33.696Z,74.30
2023-04-22T03:53:02.529Z,74.40
2023-04-22T03:55:30.133Z,74.00
2023-04-22T03:57:57.512Z,74.00
2023-04-22T04:00:25.182Z,74.10
2023-04-22T04:03:05.068Z,74.00
2023-04-22T04:05:32.791Z,74.10
2023-04-22T04:08:00.373Z,74.10
2023-04-22T04:10:27.792Z,74.00
2023-04-22T04:12:58.298Z,73.90
2023-04-22T04:15:27.226Z,74.10
2023-04-22T04:17:57.079Z,74.00
2023-04-22T04:20:26.904Z,74.40
2023-04-22T04:22:54.347Z,74.50
2023-04-22T04:25:21.838Z,74.50
2023-04-22T04:27:51.998Z,74.50
2023-04-22T04:30:21.662Z,74.40
2023-04-22T04:32:54.298Z,74.20
2023-04-22T04:35:22.056Z,74.20
2023-04-22T04:37:54.119Z,74.20
2023-04-22T04:40:22.200Z,74.40
2023-04-22T04:43:04.489Z,74.00
2023-04-22T04:45:37.952Z,74.20
2023-04-22T04:48:09.584Z,74.40
2023-04-22T04:50:44.424Z,74.40
2023-04-22T04:53:12.805Z,74.00
2023-04-22T04:55:42.919Z,73.80
2023-04-22T04:58:18.263Z,74.10
2023-04-22T05:00:47.399Z,74.00
2023-04-22T05:03:16.690Z,73.90
2023-04-22T05:05:46.756Z,75.00
2023-04-22T05:08:14.355Z,74.70
2023-04-22T05:10:43.163Z,75.60
2023-04-22T05:13:11.139Z,75.70
2023-04-22T05:15:41.400Z,75.50
2023-04-22T05:18:09.154Z,76.40
2023-04-22T05:20:36.512Z,77.20
2023-04-22T05:23:05.106Z,78.00
2023-04-22T05:25:32.580Z,78.70
2023-04-22T05:28:05.862Z,80.90
2023-04-22T05:30:40.673Z,80.40
2023-04-22T05:33:09.145Z,82.90
2023-04-22T05:35:37.659Z,82.70
2023-04-22T05:38:05.101Z,83.30
2023-04-22T05:40:33.805Z,85.40
2023-04-22T05:43:03.047Z,85.50
2023-04-22T05:45:30.472Z,86.10
2023-04-22T05:47:58.603Z,86.70
2023-04-22T05:50:31.091Z,86.60
2023-04-22T05:53:05.946Z,81.30
2023-04-22T05:55:33.684Z,79.90
2023-04-22T05:58:02.158Z,79.90
2023-04-22T06:00:50.779Z,80.60
2023-04-22T06:03:36.685Z,82.30
2023-04-22T06:06:05.273Z,81.10
2023-04-22T06:08:32.775Z,80.00
2023-04-22T06:11:00.339Z,79.90
2023-04-22T06:13:30.985Z,79.90
2023-04-22T06:15:58.660Z,81.60
2023-04-22T06:18:28.035Z,81.40
2023-04-22T06:20:56.136Z,83.60
2023-04-22T06:23:23.811Z,83.90
2023-04-22T06:25:51.266Z,83.60
2023-04-22T06:28:18.766Z,82.10
2023-04-22T06:30:48.234Z,81.10
2023-04-22T06:33:16.829Z,81.30
2023-04-22T06:35:44.337Z,81.60
2023-04-22T06:38:11.894Z,81.50
2023-04-22T06:40:56.073Z,81.20
2023-04-22T06:43:27.508Z,81.60
2023-04-22T06:46:18.589Z,81.80
2023-04-22T06:48:52.341Z,80.50
2023-04-22T06:51:26.158Z,80.30
2023-04-22T06:53:53.769Z,79.90
2023-04-22T06:56:21.173Z,78.90
2023-04-22T06:58:48.597Z,78.50
2023-04-22T07:01:16.204Z,77.30
2023-04-22T07:03:43.727Z,76.20
2023-04-22T07:06:15.142Z,75.80
2023-04-22T07:08:43.122Z,76.10
2023-04-22T07:11:13.183Z,77.00
2023-04-22T07:14:17.349Z,77.20
2023-04-22T07:16:45.228Z,76.50
2023-04-22T07:19:12.734Z,74.70
2023-04-22T07:21:40.157Z,74.90
2023-04-22T07:24:12.109Z,74.40
2023-04-22T07:26:40.518Z,73.90
2023-04-22T07:29:07.975Z,72.80
2023-04-22T07:31:38.846Z,72.90
2023-04-22T07:34:06.488Z,73.60
2023-04-22T07:36:33.955Z,73.70
2023-04-22T07:39:01.470Z,73.90
2023-04-22T07:41:28.922Z,73.60
2023-04-22T07:43:56.298Z,73.80
2023-04-22T07:46:24.110Z,74.30
2023-04-22T07:48:51.639Z,73.70
2023-04-22T07:51:18.998Z,73.40
2023-04-22T07:53:46.274Z,73.20
2023-04-22T07:56:14.189Z,73.50
2023-04-22T07:58:41.530Z,74.80
2023-04-22T08:01:08.934Z,74.40
2023-04-22T08:03:36.524Z,74.60
2023-04-22T08:06:04.180Z,73.90
2023-04-22T08:08:31.896Z,72.90
2023-04-22T08:10:59.370Z,72.80
2023-04-22T08:13:26.643Z,73.40
2023-04-22T08:15:54.238Z,72.80
2023-04-22T08:18:21.503Z,72.30
2023-04-22T08:20:49.313Z,72.40
2023-04-22T08:23:16.614Z,71.80
2023-04-22T08:25:43.964Z,72.50
2023-04-22T08:28:12.038Z,71.60
2023-04-22T08:30:39.390Z,72.40
2023-04-22T08:33:07.150Z,72.10
2023-04-22T08:35:37.814Z,71.60
2023-04-22T08:38:05.282Z,72.20
2023-04-22T08:40:32.586Z,71.90
2023-04-22T08:42:59.882Z,70.90
2023-04-22T08:45:27.354Z,70.90
2023-04-22T08:47:55.120Z,70.20
2023-04-22T08:50:22.942Z,68.10
2023-04-22T08:52:50.339Z,68.70
2023-04-22T08:55:17.986Z,68.70
2023-04-22T08:57:46.315Z,70.30
2023-04-22T09:00:14.410Z,69.40
2023-04-22T09:02:47.390Z,69.50
2023-04-22T09:05:15.797Z,70.50
2023-04-22T09:07:43.622Z,70.20
2023-04-22T09:10:12.184Z,69.50
2023-04-22T09:12:41.008Z,68.80
2023-04-22T09:15:09.985Z,67.90
2023-04-22T09:17:39.464Z,66.30
2023-04-22T09:20:09.098Z,67.40
2023-04-22T09:22:43.254Z,66.40
2023-04-22T09:25:21.112Z,61.10
2023-04-22T09:27:57.553Z,61.20
2023-04-22T09:30:32.106Z,61.80
2023-04-22T09:33:01.224Z,60.70
2023-04-22T09:35:33.119Z,57.20
2023-04-22T09:38:02.256Z,57.00
2023-04-22T09:40:31.684Z,60.60
2023-04-22T09:43:02.223Z,58.30
2023-04-22T09:45:35.236Z,58.10
2023-04-22T09:48:10.216Z,55.90
2023-04-22T09:50:40.126Z,54.60
2023-04-22T09:53:10.138Z,53.40
2023-04-22T09:55:40.636Z,53.40
2023-04-22T09:58:10.932Z,53.70
2023-04-22T10:00:43.853Z,53.20
2023-04-22T10:03:11.615Z,52.90
2023-04-22T10:05:39.903Z,51.50
2023-04-22T10:08:11.032Z,51.90
2023-04-22T10:10:39.281Z,51.00
2023-04-22T10:13:07.686Z,50.10
2023-04-22T10:15:46.147Z,47.50
2023-04-22T10:18:19.956Z,48.70
2023-04-22T10:20:48.680Z,47.70
2023-04-22T10:23:28.366Z,49.80
2023-04-22T10:25:56.785Z,50.70
2023-04-22T10:28:27.923Z,50.20
2023-04-22T10:30:55.674Z,50.10
2023-04-22T10:33:29.113Z,50.10
2023-04-22T10:36:14.946Z,50.20
2023-04-22T10:39:02.332Z,49.90
2023-04-22T10:41:33.191Z,52.10
2023-04-22T10:44:03.322Z,51.60
2023-04-22T10:46:44.550Z,52.10
2023-04-22T10:49:22.243Z,51.60
2023-04-22T10:52:04.123Z,51.00
2023-04-22T10:54:40.248Z,51.70
2023-04-22T10:57:19.463Z,52.80
2023-04-22T10:59:56.267Z,52.20
2023-04-22T11:02:28.401Z,51.50
2023-04-22T11:05:27.569Z,51.70
2023-04-22T11:08:01.898Z,50.00
2023-04-22T11:10:44.610Z,50.00
2023-04-22T11:13:22.730Z,51.10
2023-04-22T11:15:51.939Z,51.50
2023-04-22T11:18:22.445Z,51.40
2023-04-22T11:20:50.937Z,51.70
2023-04-22T11:23:28.981Z,52.10
2023-04-22T11:26:00.726Z,51.20
2023-04-22T11:28:28.659Z,52.00
2023-04-22T11:31:07.102Z,52.20
2023-04-22T11:33:43.292Z,52.60
2023-04-22T11:36:22.855Z,54.70
2023-04-22T11:38:57.035Z,53.60
2023-04-22T11:41:24.555Z,52.90
2023-04-22T11:43:52.215Z,53.30
2023-04-22T11:46:32.090Z,54.30
2023-04-22T11:49:18.104Z,53.70
2023-04-22T11:51:56.770Z,53.70
2023-04-22T11:54:35.195Z,53.50
2023-04-22T11:57:12.016Z,51.80
2023-04-22T11:59:39.580Z,53.10
2023-04-22T12:02:08.148Z,52.20
2023-04-22T12:04:40.283Z,50.70
2023-04-22T12:07:08.323Z,49.90
2023-04-22T12:09:35.731Z,51.80
2023-04-22T12:12:06.280Z,51.30
2023-04-22T12:14:36.420Z,51.10
2023-04-22T12:17:05.923Z,49.70
2023-04-22T12:19:33.424Z,47.90
2023-04-22T12:22:01.313Z,47.00
2023-04-22T12:24:31.176Z,47.60
2023-04-22T12:27:01.576Z,48.00
2023-04-22T12:29:33.811Z,49.00
2023-04-22T12:32:01.491Z,45.50
2023-04-22T12:34:28.861Z,47.40
2023-04-22T12:36:57.821Z,46.80
2023-04-22T12:39:25.314Z,47.80
2023-04-22T12:41:54.422Z,48.30
2023-04-22T12:44:24.486Z,44.70
2023-04-22T12:46:52.892Z,43.90
2023-04-22T12:49:20.639Z,41.40
2023-04-22T12:51:51.502Z,41.20
2023-04-22T12:54:24.669Z,40.20
2023-04-22T12:56:52.343Z,39.10
2023-04-22T12:59:20.155Z,40.10
2023-04-22T13:01:48.114Z,41.00
2023-04-22T13:04:20.081Z,42.50
2023-04-22T13:06:47.872Z,41.70
2023-04-22T13:09:15.359Z,40.60
2023-04-22T13:11:42.718Z,42.80
2023-04-22T13:14:17.670Z,42.00
2023-04-22T13:16:45.700Z,41.30
2023-04-22T13:19:19.820Z,43.90
2023-04-22T13:21:49.532Z,43.30
2023-04-22T13:24:21.670Z,44.10
2023-04-22T13:26:51.334Z,43.50
2023-04-22T13:29:23.204Z,43.20
2023-04-22T13:31:50.837Z,45.10
2023-04-22T13:34:19.896Z,45.80
2023-04-22T13:36:47.482Z,46.70
2023-04-22T13:39:15.039Z,47.10
2023-04-22T13:41:43.478Z,47.30
2023-04-22T13:44:14.525Z,48.00
2023-04-22T13:46:49.650Z,49.00
2023-04-22T13:49:17.276Z,47.30
2023-04-22T13:51:44.512Z,49.20
2023-04-22T13:54:12.183Z,47.30
2023-04-22T13:56:39.469Z,48.50
2023-04-22T13:59:10.077Z,45.80
2023-04-22T14:01:38.786Z,46.00
2023-04-22T14:04:07.681Z,45.00
2023-04-22T14:06:48.637Z,43.20
2023-04-22T14:09:18.643Z,42.70
2023-04-22T14:11:45.956Z,41.60
2023-04-22T14:14:13.407Z,41.80
2023-04-22T14:16:40.653Z,40.40
2023-04-22T14:19:09.172Z,39.10
2023-04-22T14:21:36.817Z,40.90
2023-04-22T14:24:05.419Z,41.50
2023-04-22T14:26:35.142Z,43.50
2023-04-22T14:29:02.649Z,42.80
2023-04-22T14:31:30.020Z,42.90
2023-04-22T14:34:01.082Z,43.50
2023-04-22T14:36:28.562Z,44.70
2023-04-22T14:38:56.622Z,45.40
2023-04-22T14:41:24.315Z,43.30
2023-04-22T14:43:51.744Z,44.40
2023-04-22T14:46:19.258Z,43.90
2023-04-22T14:48:46.703Z,43.40
2023-04-22T14:51:13.989Z,42.20
2023-04-22T14:53:42.001Z,43.80
2023-04-22T14:56:12.167Z,43.40
2023-04-22T14:58:39.834Z,43.20
2023-04-22T15:01:07.687Z,43.60
2023-04-22T15:03:36.162Z,43.60
2023-04-22T15:06:04.183Z,41.80
2023-04-22T15:08:31.520Z,43.80
2023-04-22T15:11:00.094Z,41.50
2023-04-22T15:13:27.641Z,42.70
2023-04-22T15:15:58.423Z,43.30
2023-04-22T15:18:27.210Z,44.10
2023-04-22T15:20:57.616Z,43.00
2023-04-22T15:23:25.108Z,42.90
2023-04-22T15:25:53.795Z,43.40
2023-04-22T15:28:21.252Z,44.40
2023-04-22T15:30:50.428Z,47.20
2023-04-22T15:33:17.957Z,47.30
2023-04-22T15:35:47.826Z,47.90
2023-04-22T15:38:15.220Z,48.20
2023-04-22T15:40:42.966Z,49.00
2023-04-22T15:43:11.219Z,50.10
2023-04-22T15:45:38.640Z,48.70
2023-04-22T15:48:06.123Z,50.70
2023-04-22T15:50:33.701Z,50.00
2023-04-22T15:53:01.601Z,50.50
2023-04-22T15:55:28.962Z,51.30
2023-04-22T15:57:56.329Z,51.60
2023-04-22T16:00:23.935Z,51.90
2023-04-22T16:02:55.987Z,52.60
2023-04-22T16:05:25.165Z,51.70
2023-04-22T16:07:56.081Z,53.00
2023-04-22T16:10:26.354Z,53.90
2023-04-22T16:12:53.690Z,53.40
2023-04-22T16:15:23.439Z,53.50
2023-04-22T16:17:51.161Z,53.70
2023-04-22T16:20:18.738Z,54.90
2023-04-22T16:22:46.104Z,55.10
2023-04-22T16:25:13.527Z,55.00
2023-04-22T16:27:40.827Z,52.10
2023-04-22T16:30:09.005Z,53.30
2023-04-22T16:32:36.490Z,52.00
2023-04-22T16:35:04.681Z,53.80
2023-04-22T16:37:32.345Z,53.90
2023-04-22T16:39:59.813Z,52.20
2023-04-22T16:42:27.776Z,52.40
2023-04-22T16:44:55.381Z,52.10
2023-04-22T16:47:22.873Z,53.60
2023-04-22T16:49:50.914Z,55.20
2023-04-22T16:52:18.547Z,53.50
2023-04-22T16:54:46.015Z,55.10
2023-04-22T16:57:13.379Z,55.70
2023-04-22T16:59:40.967Z,52.10
2023-04-22T17:02:09.462Z,53.60
2023-04-22T17:04:36.930Z,55.30
2023-04-22T17:07:04.346Z,55.30
2023-04-22T17:09:33.306Z,53.20
2023-04-22T17:12:01.744Z,52.00
2023-04-22T17:14:29.137Z,55.00
2023-04-22T17:16:56.350Z,55.80
2023-04-22T17:19:24.629Z,54.20
2023-04-22T17:21:52.091Z,54.40
2023-04-22T17:24:21.122Z,55.00
2023-04-22T17:26:49.438Z,55.50
2023-04-22T17:29:16.751Z,57.70
2023-04-22T17:31:44.042Z,58.00
2023-04-22T17:34:11.548Z,58.20
2023-04-22T17:36:38.868Z,59.40
2023-04-22T17:39:06.257Z,58.50
2023-04-22T17:41:33.590Z,59.30
2023-04-22T17:44:01.420Z,61.10
2023-04-22T17:46:28.787Z,62.90
2023-04-22T17:48:56.160Z,63.20
2023-04-22T17:51:23.471Z,64.00
2023-04-22T17:53:51.073Z,64.30
2023-04-22T17:56:18.275Z,65.40
2023-04-22T17:58:45.871Z,65.90
2023-04-22T18:01:13.603Z,66.40
2023-04-22T18:03:42.102Z,66.60
2023-04-22T18:06:09.709Z,65.70
2023-04-22T18:08:37.054Z,65.60
2023-04-22T18:11:05.271Z,65.70
2023-04-22T18:13:33.181Z,65.30
2023-04-22T18:16:00.567Z,65.20
2023-04-22T18:18:28.340Z,65.20
2023-04-22T18:20:55.626Z,65.10
2023-04-22T18:23:23.024Z,64.70
2023-04-22T18:25:50.286Z,64.50
2023-04-22T18:28:17.701Z,64.80
2023-04-22T18:30:44.967Z,64.60
2023-04-22T18:33:12.444Z,64.20
2023-04-22T18:35:39.777Z,64.40
2023-04-22T18:38:07.101Z,64.30
2023-04-22T18:40:34.694Z,64.70
2023-04-22T18:43:01.991Z,64.80
2023-04-22T18:45:30.602Z,64.50
2023-04-22T18:47:59.125Z,64.50
2023-04-22T18:50:26.688Z,64.50
2023-04-22T18:52:53.954Z,64.30
2023-04-22T18:55:21.266Z,63.90
2023-04-22T18:57:48.645Z,63.10
2023-04-22T19:00:16.646Z,63.60
2023-04-22T19:02:46.056Z,64.00
2023-04-22T19:05:14.813Z,64.30
2023-04-22T19:07:44.485Z,65.10
2023-04-22T19:10:12.690Z,65.30
2023-04-22T19:12:40.064Z,65.80
2023-04-22T19:15:08.215Z,66.40
2023-04-22T19:17:35.497Z,66.70
2023-04-22T19:20:02.848Z,67.80
2023-04-22T19:22:30.113Z,68.10
2023-04-22T19:25:01.170Z,67.80
2023-04-22T19:27:28.761Z,68.40
2023-04-22T19:29:56.173Z,68.30
2023-04-22T19:32:23.521Z,68.80
2023-04-22T19:34:50.890Z,68.90
2023-04-22T19:37:18.423Z,69.40
2023-04-22T19:39:45.759Z,70.20
2023-04-22T19:42:13.302Z,67.20
2023-04-22T19:44:43.179Z,68.80
2023-04-22T19:47:10.657Z,68.60
2023-04-22T19:49:39.129Z,68.50
2023-04-22T19:52:09.734Z,68.60
2023-04-22T19:54:39.631Z,66.70
2023-04-22T19:57:07.623Z,66.00
2023-04-22T19:59:35.322Z,65.20
2023-04-22T20:02:02.885Z,65.50
2023-04-22T20:04:30.717Z,65.30
2023-04-22T20:07:00.769Z,64.70
2023-04-22T20:09:32.978Z,64.10
2023-04-22T20:12:00.586Z,63.40
2023-04-22T20:14:28.771Z,63.20
2023-04-22T20:16:56.238Z,62.70
2023-04-22T20:19:23.815Z,61.60
2023-04-22T20:21:53.408Z,60.80
2023-04-22T20:24:21.335Z,61.00
2023-04-22T20:26:49.775Z,60.80
2023-04-22T20:29:18.363Z,60.60
2023-04-22T20:31:46.671Z,60.10
2023-04-22T20:34:14.171Z,61.10
2023-04-22T20:36:42.191Z,60.10
2023-04-22T20:39:14.409Z,60.20
2023-04-22T20:41:42.223Z,59.10
2023-04-22T20:44:09.664Z,58.40
2023-04-22T20:46:37.696Z,57.40
2023-04-22T20:49:05.039Z,56.60
2023-04-22T20:51:32.386Z,55.80
2023-04-22T20:54:04.746Z,55.50
2023-04-22T20:56:32.627Z,55.50
2023-04-22T20:59:00.047Z,55.40
2023-04-22T21:01:27.745Z,55.60
2023-04-22T21:03:57.778Z,55.60
2023-04-22T21:06:28.254Z,55.50
2023-04-22T21:08:58.646Z,55.60
2023-04-22T21:11:26.652Z,55.30
2023-04-22T21:13:54.496Z,54.90
2023-04-22T21:16:26.831Z,54.70
2023-04-22T21:18:58.391Z,56.10
2023-04-22T21:21:34.150Z,56.50
2023-04-22T21:24:02.631Z,56.90
2023-04-22T21:26:30.437Z,57.00
2023-04-22T21:28:58.882Z,57.50
2023-04-22T21:31:27.711Z,58.10
2023-04-22T21:33:55.477Z,58.40
2023-04-22T21:36:22.904Z,58.60
2023-04-22T21:38:50.452Z,59.10
2023-04-22T21:41:17.872Z,61.30
2023-04-22T21:43:45.363Z,62.10
2023-04-22T21:46:12.662Z,63.20
2023-04-22T21:48:40.219Z,64.60
2023-04-22T21:51:07.631Z,65.40
2023-04-22T21:53:35.284Z,65.60
2023-04-22T21:56:02.603Z,65.60
2023-04-22T21:58:29.864Z,65.90
2023-04-22T22:00:58.260Z,66.40
2023-04-22T22:03:25.799Z,66.30
2023-04-22T22:05:53.174Z,65.60
2023-04-22T22:08:20.827Z,65.00
2023-04-22T22:10:48.621Z,63.60
2023-04-22T22:13:15.942Z,62.50
2023-04-22T22:15:43.289Z,63.10
2023-04-22T22:18:10.473Z,62.40
2023-04-22T22:20:37.831Z,62.00
2023-04-22T22:23:05.235Z,62.10
2023-04-22T22:25:32.580Z,62.20
2023-04-22T22:27:59.889Z,61.80
2023-04-22T22:30:27.271Z,61.30
2023-04-22T22:32:54.661Z,61.30
2023-04-22T22:35:22.023Z,61.30
2023-04-22T22:37:49.398Z,61.30
2023-04-22T22:40:16.716Z,60.80
2023-04-22T22:42:43.919Z,61.00
2023-04-22T22:45:11.915Z,61.10
2023-04-22T22:47:39.372Z,61.00
2023-04-22T22:50:07.727Z,60.70
2023-04-22T22:52:35.028Z,60.60
2023-04-22T22:55:02.295Z,60.70
2023-04-22T22:57:29.561Z,60.80
2023-04-22T22:59:56.883Z,61.00
2023-04-22T23:02:24.311Z,61.30
2023-04-22T23:04:51.952Z,61.40
2023-04-22T23:07:19.195Z,61.80
2023-04-22T23:09:46.431Z,62.00
2023-04-22T23:12:13.653Z,62.40
2023-04-22T23:14:41.342Z,62.50
2023-04-22T23:17:08.958Z,62.60
2023-04-22T23:19:36.391Z,62.60
2023-04-22T23:22:06.027Z,62.40
2023-04-22T23:24:33.569Z,62.40
2023-04-22T23:27:01.969Z,62.30
2023-04-22T23:29:29.685Z,62.20
2023-04-22T23:31:57.974Z,62.20
2023-04-22T23:34:25.976Z,62.30
2023-04-22T23:36:54.234Z,62.20
2023-04-22T23:39:21.624Z,62.30
2023-04-22T23:41:48.891Z,62.40
2023-04-22T23:44:16.238Z,62.30
2023-04-22T23:46:43.640Z,62.10
2023-04-22T23:49:11.225Z,61.90
2023-04-22T23:51:38.903Z,61.60
2023-04-22T23:54:06.434Z,61.40
2023-04-22T23:56:34.137Z,61.40
2023-04-22T23:59:01.581Z,61.20
